sensor_id;sensor_type;location;lat;lon;timestamp;pressure;altitude;pressure_sealevel;temperature;humidity
37312;BME280;23197;53.912;9.138;2022-10-10T00:00:45;101701.34;;;13.31;53.66
37312;BME280;23197;53.912;9.138;2022-10-10T00:03:10;101700.56;;;13.29;53.90
37312;BME280;23197;53.912;9.138;2022-10-10T00:05:37;101694.56;;;13.27;53.79
37312;BME280;23197;53.912;9.138;2022-10-10T00:08:03;101698.16;;;13.26;54.09
37312;BME280;23197;53.912;9.138;2022-10-10T00:10:29;101692.16;;;13.24;54.06
37312;BME280;23197;53.912;9.138;2022-10-10T00:12:55;101689.53;;;13.24;53.99
37312;BME280;23197;53.912;9.138;2022-10-10T00:15:20;101687.81;;;13.23;54.14
37312;BME280;23197;53.912;9.138;2022-10-10T00:17:46;101687.06;;;13.21;53.97
37312;BME280;23197;53.912;9.138;2022-10-10T00:20:16;101686.31;;;13.19;54.09
37312;BME280;23197;53.912;9.138;2022-10-10T00:22:42;101681.06;;;13.19;54.22
37312;BME280;23197;53.912;9.138;2022-10-10T00:25:09;101678.53;;;13.17;54.47
37312;BME280;23197;53.912;9.138;2022-10-10T00:27:36;101665.47;;;13.16;54.26
37312;BME280;23197;53.912;9.138;2022-10-10T00:30:03;101670.72;;;13.16;54.12
37312;BME280;23197;53.912;9.138;2022-10-10T00:32:29;101661.16;;;13.15;54.22
37312;BME280;23197;53.912;9.138;2022-10-10T00:34:55;101661.28;;;13.13;54.18
37312;BME280;23197;53.912;9.138;2022-10-10T00:37:20;101661.44;;;13.10;54.33
37312;BME280;23197;53.912;9.138;2022-10-10T00:39:46;101657.06;;;13.11;54.07
37312;BME280;23197;53.912;9.138;2022-10-10T00:42:12;101650.09;;;13.10;54.34
37312;BME280;23197;53.912;9.138;2022-10-10T00:44:42;101647.69;;;13.07;54.23
37312;BME280;23197;53.912;9.138;2022-10-10T00:47:08;101645.91;;;13.07;54.41
37312;BME280;23197;53.912;9.138;2022-10-10T00:49:36;101640.84;;;13.04;54.50
37312;BME280;23197;53.912;9.138;2022-10-10T00:52:03;101645.22;;;13.03;54.54
37312;BME280;23197;53.912;9.138;2022-10-10T00:54:31;101639.25;;;13.01;54.65
37312;BME280;23197;53.912;9.138;2022-10-10T00:57:03;101634.09;;;13.00;54.52
37312;BME280;23197;53.912;9.138;2022-10-10T00:59:32;101642.06;;;12.98;54.58
37312;BME280;23197;53.912;9.138;2022-10-10T01:01:58;101635.09;;;12.97;54.43
37312;BME280;23197;53.912;9.138;2022-10-10T01:04:40;101627.53;;;12.93;54.76
37312;BME280;23197;53.912;9.138;2022-10-10T01:07:11;101627.53;;;12.93;54.60
37312;BME280;23197;53.912;9.138;2022-10-10T01:09:40;101629.31;;;12.92;54.74
37312;BME280;23197;53.912;9.138;2022-10-10T01:15:49;101619.19;;;12.86;54.89
37312;BME280;23197;53.912;9.138;2022-10-10T01:20:57;101612.34;;;12.84;54.95
37312;BME280;23197;53.912;9.138;2022-10-10T01:32:13;101604.78;;;12.79;54.84
37312;BME280;23197;53.912;9.138;2022-10-10T01:35:06;101604.00;;;12.77;54.94
37312;BME280;23197;53.912;9.138;2022-10-10T01:37:47;101594.44;;;12.76;55.07
37312;BME280;23197;53.912;9.138;2022-10-10T01:40:26;101593.72;;;12.74;55.02
37312;BME280;23197;53.912;9.138;2022-10-10T01:42:58;101583.31;;;12.72;54.99
37312;BME280;23197;53.912;9.138;2022-10-10T01:45:25;101591.09;;;12.74;55.11
37312;BME280;23197;53.912;9.138;2022-10-10T01:47:52;101581.63;;;12.71;55.14
37312;BME280;23197;53.912;9.138;2022-10-10T01:50:22;101568.69;;;12.68;55.33
37312;BME280;23197;53.912;9.138;2022-10-10T01:53:19;101569.72;;;12.66;55.30
37312;BME280;23197;53.912;9.138;2022-10-10T02:01:45;101552.75;;;12.57;55.25
37312;BME280;23197;53.912;9.138;2022-10-10T02:04:45;101559.03;;;12.55;55.34
37312;BME280;23197;53.912;9.138;2022-10-10T02:07:21;101550.44;;;12.53;55.38
37312;BME280;23197;53.912;9.138;2022-10-10T02:09:48;101553.81;;;12.55;55.31
37312;BME280;23197;53.912;9.138;2022-10-10T02:12:15;101556.53;;;12.53;55.25
37312;BME280;23197;53.912;9.138;2022-10-10T02:14:43;101553.97;;;12.52;55.06
37312;BME280;23197;53.912;9.138;2022-10-10T02:17:12;101547.03;;;12.50;55.42
37312;BME280;23197;53.912;9.138;2022-10-10T02:19:43;101554.16;;;12.48;55.34
37312;BME280;23197;53.912;9.138;2022-10-10T02:22:11;101550.81;;;12.46;55.17
37312;BME280;23197;53.912;9.138;2022-10-10T02:24:37;101543.88;;;12.45;55.52
37312;BME280;23197;53.912;9.138;2022-10-10T02:27:12;101539.75;;;12.41;55.41
37312;BME280;23197;53.912;9.138;2022-10-10T02:29:41;101539.75;;;12.41;55.21
37312;BME280;23197;53.912;9.138;2022-10-10T02:34:39;101535.59;;;12.37;55.26
37312;BME280;23197;53.912;9.138;2022-10-10T02:37:10;101530.56;;;12.34;55.60
37312;BME280;23197;53.912;9.138;2022-10-10T02:39:41;101528.13;;;12.31;55.52
37312;BME280;23197;53.912;9.138;2022-10-10T02:42:08;101523.91;;;12.29;55.73
37312;BME280;23197;53.912;9.138;2022-10-10T02:44:36;101526.53;;;12.29;55.70
37312;BME280;23197;53.912;9.138;2022-10-10T02:47:03;101525.84;;;12.25;55.94
37312;BME280;23197;53.912;9.138;2022-10-10T02:49:30;101522.50;;;12.23;55.86
37312;BME280;23197;53.912;9.138;2022-10-10T02:51:57;101517.25;;;12.23;55.51
37312;BME280;23197;53.912;9.138;2022-10-10T02:54:22;101524.38;;;12.21;55.87
37312;BME280;23197;53.912;9.138;2022-10-10T02:56:48;101517.44;;;12.20;56.02
37312;BME280;23197;53.912;9.138;2022-10-10T02:59:13;101515.75;;;12.19;55.74
37312;BME280;23197;53.912;9.138;2022-10-10T03:01:39;101502.84;;;12.16;55.74
37312;BME280;23197;53.912;9.138;2022-10-10T03:04:05;101509.00;;;12.15;56.23
37312;BME280;23197;53.912;9.138;2022-10-10T03:06:30;101508.28;;;12.13;56.07
37312;BME280;23197;53.912;9.138;2022-10-10T03:08:56;101505.81;;;12.10;56.11
37312;BME280;23197;53.912;9.138;2022-10-10T03:11:21;101503.19;;;12.10;55.98
37312;BME280;23197;53.912;9.138;2022-10-10T03:13:46;101492.13;;;12.05;56.16
37312;BME280;23197;53.912;9.138;2022-10-10T03:16:12;101492.97;;;12.05;56.33
37312;BME280;23197;53.912;9.138;2022-10-10T03:18:37;101490.47;;;12.04;56.14
37312;BME280;23197;53.912;9.138;2022-10-10T03:21:02;101487.09;;;12.02;56.02
37312;BME280;23197;53.912;9.138;2022-10-10T03:23:28;101482.88;;;11.99;56.33
37312;BME280;23197;53.912;9.138;2022-10-10T03:25:53;101483.69;;;12.00;56.30
37312;BME280;23197;53.912;9.138;2022-10-10T03:28:19;101487.25;;;11.99;56.23
37312;BME280;23197;53.912;9.138;2022-10-10T03:30:45;101486.53;;;11.97;56.16
37312;BME280;23197;53.912;9.138;2022-10-10T03:33:11;101490.06;;;11.95;56.18
37312;BME280;23197;53.912;9.138;2022-10-10T03:35:37;101475.31;;;11.94;56.25
37312;BME280;23197;53.912;9.138;2022-10-10T03:38:02;101485.00;;;11.92;56.16
37312;BME280;23197;53.912;9.138;2022-10-10T03:40:28;101478.19;;;11.90;56.48
37312;BME280;23197;53.912;9.138;2022-10-10T03:42:54;101482.59;;;11.89;56.35
37312;BME280;23197;53.912;9.138;2022-10-10T03:45:20;101476.59;;;11.87;56.40
37312;BME280;23197;53.912;9.138;2022-10-10T03:47:45;101470.59;;;11.85;56.48
37312;BME280;23197;53.912;9.138;2022-10-10T03:50:11;101471.53;;;11.84;56.19
37312;BME280;23197;53.912;9.138;2022-10-10T03:52:36;101469.94;;;11.82;56.41
37312;BME280;23197;53.912;9.138;2022-10-10T03:55:02;101473.50;;;11.81;56.23
37312;BME280;23197;53.912;9.138;2022-10-10T03:57:28;101469.22;;;11.78;56.39
37312;BME280;23197;53.912;9.138;2022-10-10T03:59:53;101455.41;;;11.76;56.60
37312;BME280;23197;53.912;9.138;2022-10-10T04:02:19;101453.72;;;11.75;56.82
37312;BME280;23197;53.912;9.138;2022-10-10T04:04:44;101449.41;;;11.74;56.88
37312;BME280;23197;53.912;9.138;2022-10-10T04:07:10;101453.88;;;11.72;56.56
37312;BME280;23197;53.912;9.138;2022-10-10T04:09:35;101461.84;;;11.71;56.58
37312;BME280;23197;53.912;9.138;2022-10-10T04:12:01;101443.59;;;11.69;56.68
37312;BME280;23197;53.912;9.138;2022-10-10T04:14:26;101452.38;;;11.68;56.79
37312;BME280;23197;53.912;9.138;2022-10-10T04:16:52;101445.44;;;11.67;56.75
37312;BME280;23197;53.912;9.138;2022-10-10T04:19:18;101432.44;;;11.65;56.80
37312;BME280;23197;53.912;9.138;2022-10-10T04:21:43;101429.94;;;11.64;56.90
37312;BME280;23197;53.912;9.138;2022-10-10T04:24:09;101432.66;;;11.62;56.99
37312;BME280;23197;53.912;9.138;2022-10-10T04:26:34;101430.13;;;11.61;57.31
37312;BME280;23197;53.912;9.138;2022-10-10T04:29:00;101428.41;;;11.60;57.12
37312;BME280;23197;53.912;9.138;2022-10-10T04:31:25;101429.34;;;11.59;56.97
37312;BME280;23197;53.912;9.138;2022-10-10T04:33:51;101425.03;;;11.58;57.30
37312;BME280;23197;53.912;9.138;2022-10-10T04:36:16;101426.00;;;11.57;57.15
37312;BME280;23197;53.912;9.138;2022-10-10T04:38:42;101423.47;;;11.55;57.01
37312;BME280;23197;53.912;9.138;2022-10-10T04:41:08;101421.69;;;11.56;57.20
37312;BME280;23197;53.912;9.138;2022-10-10T04:43:33;101420.91;;;11.54;56.92
37312;BME280;23197;53.912;9.138;2022-10-10T04:45:59;101422.69;;;11.53;57.44
37312;BME280;23197;53.912;9.138;2022-10-10T04:48:24;101428.03;;;11.52;57.53
37312;BME280;23197;53.912;9.138;2022-10-10T04:50:54;101423.63;;;11.52;57.41
37312;BME280;23197;53.912;9.138;2022-10-10T04:53:20;101421.00;;;11.52;57.33
37312;BME280;23197;53.912;9.138;2022-10-10T04:55:46;101422.03;;;11.50;57.11
37312;BME280;23197;53.912;9.138;2022-10-10T04:58:12;101412.41;;;11.50;57.38
37312;BME280;23197;53.912;9.138;2022-10-10T05:00:38;101415.13;;;11.49;57.16
37312;BME280;23197;53.912;9.138;2022-10-10T05:03:03;101415.13;;;11.49;57.49
37312;BME280;23197;53.912;9.138;2022-10-10T05:05:29;101409.13;;;11.47;57.10
37312;BME280;23197;53.912;9.138;2022-10-10T05:07:55;101403.13;;;11.45;57.39
37312;BME280;23197;53.912;9.138;2022-10-10T05:10:20;101411.00;;;11.45;57.25
37312;BME280;23197;53.912;9.138;2022-10-10T05:12:46;101414.53;;;11.44;57.59
37312;BME280;23197;53.912;9.138;2022-10-10T05:15:11;101407.72;;;11.41;57.20
37312;BME280;23197;53.912;9.138;2022-10-10T05:17:36;101406.94;;;11.39;57.21
37312;BME280;23197;53.912;9.138;2022-10-10T05:20:03;101398.25;;;11.38;57.30
37312;BME280;23197;53.912;9.138;2022-10-10T05:22:28;101395.75;;;11.37;57.24
37312;BME280;23197;53.912;9.138;2022-10-10T05:24:53;101394.13;;;11.34;57.45
37312;BME280;23197;53.912;9.138;2022-10-10T05:27:19;101401.97;;;11.34;57.59
37312;BME280;23197;53.912;9.138;2022-10-10T05:29:44;101398.63;;;11.32;57.17
37312;BME280;23197;53.912;9.138;2022-10-10T05:32:09;101393.47;;;11.31;57.26
37312;BME280;23197;53.912;9.138;2022-10-10T05:34:35;101392.63;;;11.30;57.31
37312;BME280;23197;53.912;9.138;2022-10-10T05:37:00;101385.78;;;11.28;57.48
37312;BME280;23197;53.912;9.138;2022-10-10T05:39:26;101391.91;;;11.28;57.33
37312;BME280;23197;53.912;9.138;2022-10-10T05:41:53;101384.09;;;11.27;57.17
37312;BME280;23197;53.912;9.138;2022-10-10T05:44:19;101385.88;;;11.26;57.51
37312;BME280;23197;53.912;9.138;2022-10-10T05:46:44;101383.28;;;11.26;57.59
37312;BME280;23197;53.912;9.138;2022-10-10T05:49:09;101381.59;;;11.25;57.29
37312;BME280;23197;53.912;9.138;2022-10-10T05:51:35;101381.59;;;11.25;57.21
37312;BME280;23197;53.912;9.138;2022-10-10T05:54:01;101381.59;;;11.25;57.28
37312;BME280;23197;53.912;9.138;2022-10-10T05:56:26;101378.03;;;11.26;57.43
37312;BME280;23197;53.912;9.138;2022-10-10T05:58:52;101371.03;;;11.27;57.78
37312;BME280;23197;53.912;9.138;2022-10-10T06:01:17;101372.06;;;11.24;57.82
37312;BME280;23197;53.912;9.138;2022-10-10T06:03:43;101370.28;;;11.25;57.61
37312;BME280;23197;53.912;9.138;2022-10-10T06:06:08;101369.44;;;11.24;57.77
37312;BME280;23197;53.912;9.138;2022-10-10T06:08:34;101367.56;;;11.26;57.85
37312;BME280;23197;53.912;9.138;2022-10-10T06:11:01;101364.00;;;11.27;57.97
37312;BME280;23197;53.912;9.138;2022-10-10T06:13:27;101360.50;;;11.28;58.03
37312;BME280;23197;53.912;9.138;2022-10-10T06:15:53;101358.63;;;11.30;57.79
37312;BME280;23197;53.912;9.138;2022-10-10T06:18:19;101363.66;;;11.33;58.24
37312;BME280;23197;53.912;9.138;2022-10-10T06:20:45;101362.66;;;11.36;58.31
37312;BME280;23197;53.912;9.138;2022-10-10T06:23:10;101356.38;;;11.38;58.31
37312;BME280;23197;53.912;9.138;2022-10-10T06:25:36;101356.22;;;11.41;58.29
37312;BME280;23197;53.912;9.138;2022-10-10T06:28:02;101357.72;;;11.46;58.06
37312;BME280;23197;53.912;9.138;2022-10-10T06:30:28;101357.53;;;11.49;58.11
37312;BME280;23197;53.912;9.138;2022-10-10T06:32:53;101346.88;;;11.52;58.17
37312;BME280;23197;53.912;9.138;2022-10-10T06:35:19;101352.84;;;11.54;58.46
37312;BME280;23197;53.912;9.138;2022-10-10T06:37:44;101352.59;;;11.58;58.69
37312;BME280;23197;53.912;9.138;2022-10-10T06:40:10;101359.44;;;11.61;58.55
37312;BME280;23197;53.912;9.138;2022-10-10T06:42:36;101355.59;;;11.66;58.57
37312;BME280;23197;53.912;9.138;2022-10-10T06:45:03;101361.50;;;11.70;58.66
37312;BME280;23197;53.912;9.138;2022-10-10T06:47:28;101364.69;;;11.75;58.73
37312;BME280;23197;53.912;9.138;2022-10-10T06:49:54;101366.13;;;11.81;58.59
37312;BME280;23197;53.912;9.138;2022-10-10T06:52:19;101361.34;;;11.87;58.70
37312;BME280;23197;53.912;9.138;2022-10-10T06:54:45;101363.69;;;11.92;58.49
37312;BME280;23197;53.912;9.138;2022-10-10T06:57:11;101359.66;;;12.01;58.54
37312;BME280;23197;53.912;9.138;2022-10-10T06:59:36;101346.56;;;12.15;59.03
37312;BME280;23197;53.912;9.138;2022-10-10T07:02:01;101348.38;;;12.41;60.01
37312;BME280;23197;53.912;9.138;2022-10-10T07:04:27;101347.91;;;12.76;60.63
37312;BME280;23197;53.912;9.138;2022-10-10T07:06:52;101342.38;;;13.20;60.97
37312;BME280;23197;53.912;9.138;2022-10-10T07:09:18;101344.94;;;13.73;61.17
37312;BME280;23197;53.912;9.138;2022-10-10T07:11:44;101338.59;;;14.13;60.45
37312;BME280;23197;53.912;9.138;2022-10-10T07:14:11;101338.31;;;14.42;59.17
37312;BME280;23197;53.912;9.138;2022-10-10T07:16:36;101341.34;;;14.61;57.46
37312;BME280;23197;53.912;9.138;2022-10-10T07:19:02;101332.63;;;14.72;56.78
37312;BME280;23197;53.912;9.138;2022-10-10T07:21:27;101331.22;;;14.79;55.93
37312;BME280;23197;53.912;9.138;2022-10-10T07:23:53;101333.66;;;14.82;55.27
37312;BME280;23197;53.912;9.138;2022-10-10T07:26:18;101330.91;;;14.84;55.06
37312;BME280;23197;53.912;9.138;2022-10-10T07:28:47;101332.47;;;14.86;54.77
37312;BME280;23197;53.912;9.138;2022-10-10T07:31:13;101326.16;;;14.89;54.50
37312;BME280;23197;53.912;9.138;2022-10-10T07:33:42;101328.06;;;14.87;54.33
37312;BME280;23197;53.912;9.138;2022-10-10T07:36:08;101335.34;;;14.83;54.30
37312;BME280;23197;53.912;9.138;2022-10-10T07:38:35;101336.28;;;14.82;54.14
37312;BME280;23197;53.912;9.138;2022-10-10T07:41:04;101326.81;;;14.80;54.15
37312;BME280;23197;53.912;9.138;2022-10-10T07:43:29;101329.34;;;14.81;54.14
37312;BME280;23197;53.912;9.138;2022-10-10T07:45:55;101330.78;;;14.85;54.46
37312;BME280;23197;53.912;9.138;2022-10-10T07:48:20;101325.38;;;15.11;55.00
37312;BME280;23197;53.912;9.138;2022-10-10T07:50:45;101319.38;;;15.55;56.03
37312;BME280;23197;53.912;9.138;2022-10-10T07:53:11;101322.06;;;16.11;56.36
37312;BME280;23197;53.912;9.138;2022-10-10T07:55:41;101317.25;;;16.71;56.76
37312;BME280;23197;53.912;9.138;2022-10-10T07:58:08;101316.34;;;17.34;56.13
37312;BME280;23197;53.912;9.138;2022-10-10T08:00:34;101320.69;;;17.97;55.63
37312;BME280;23197;53.912;9.138;2022-10-10T08:03:00;101325.56;;;18.61;55.30
37312;BME280;23197;53.912;9.138;2022-10-10T08:05:26;101335.63;;;19.25;54.17
37312;BME280;23197;53.912;9.138;2022-10-10T08:07:51;101327.16;;;19.78;53.09
37312;BME280;23197;53.912;9.138;2022-10-10T08:10:17;101329.69;;;20.25;51.84
37312;BME280;23197;53.912;9.138;2022-10-10T08:12:42;101332.97;;;20.82;51.72
37312;BME280;23197;53.912;9.138;2022-10-10T08:15:09;101320.38;;;21.46;50.54
37312;BME280;23197;53.912;9.138;2022-10-10T08:17:34;101316.16;;;22.03;48.80
37312;BME280;23197;53.912;9.138;2022-10-10T08:20:00;101321.66;;;22.60;47.93
37312;BME280;23197;53.912;9.138;2022-10-10T08:22:25;101324.38;;;23.17;47.42
37312;BME280;23197;53.912;9.138;2022-10-10T08:24:51;101320.94;;;23.72;46.77
37312;BME280;23197;53.912;9.138;2022-10-10T08:27:16;101314.56;;;24.21;45.58
37312;BME280;23197;53.912;9.138;2022-10-10T08:29:43;101317.38;;;24.58;44.19
37312;BME280;23197;53.912;9.138;2022-10-10T08:32:09;101316.22;;;24.99;44.30
37312;BME280;23197;53.912;9.138;2022-10-10T08:34:34;101319.38;;;25.40;43.27
37312;BME280;23197;53.912;9.138;2022-10-10T08:37:00;101321.88;;;25.71;42.18
37312;BME280;23197;53.912;9.138;2022-10-10T08:39:25;101316.88;;;25.97;41.85
37312;BME280;23197;53.912;9.138;2022-10-10T08:46:59;101309.00;;;26.90;39.53
37312;BME280;23197;53.912;9.138;2022-10-10T08:49:36;101310.06;;;27.17;38.70
37312;BME280;23197;53.912;9.138;2022-10-10T08:54:47;101299.09;;;27.74;38.00
37312;BME280;23197;53.912;9.138;2022-10-10T08:57:23;101291.75;;;27.96;37.06
37312;BME280;23197;53.912;9.138;2022-10-10T08:59:50;101279.03;;;28.25;36.78
37312;BME280;23197;53.912;9.138;2022-10-10T09:02:28;101277.84;;;28.47;35.44
37312;BME280;23197;53.912;9.138;2022-10-10T09:04:56;101272.69;;;28.72;35.41
37312;BME280;23197;53.912;9.138;2022-10-10T09:13:05;101268.59;;;29.81;33.76
37312;BME280;23197;53.912;9.138;2022-10-10T09:15:58;101264.31;;;30.11;33.55
37312;BME280;23197;53.912;9.138;2022-10-10T09:18:38;101260.31;;;30.52;33.72
37312;BME280;23197;53.912;9.138;2022-10-10T09:21:44;101265.66;;;31.08;33.48
37312;BME280;23197;53.912;9.138;2022-10-10T09:24:26;101253.19;;;31.51;32.58
37312;BME280;23197;53.912;9.138;2022-10-10T09:27:02;101256.00;;;31.93;32.08
37312;BME280;23197;53.912;9.138;2022-10-10T09:29:39;101252.22;;;32.24;30.98
37312;BME280;23197;53.912;9.138;2022-10-10T09:32:11;101253.84;;;32.55;30.81
37312;BME280;23197;53.912;9.138;2022-10-10T09:34:51;101251.63;;;32.75;29.66
37312;BME280;23197;53.912;9.138;2022-10-10T09:37:38;101255.78;;;32.89;28.49
37312;BME280;23197;53.912;9.138;2022-10-10T09:42:36;101255.75;;;33.25;28.83
37312;BME280;23197;53.912;9.138;2022-10-10T09:45:12;101263.63;;;33.50;28.13
37312;BME280;23197;53.912;9.138;2022-10-10T09:47:37;101259.56;;;33.64;27.47
37312;BME280;23197;53.912;9.138;2022-10-10T09:50:03;101256.09;;;33.80;27.75
37312;BME280;23197;53.912;9.138;2022-10-10T09:52:30;101253.91;;;34.06;27.49
37312;BME280;23197;53.912;9.138;2022-10-10T09:54:59;101249.41;;;34.28;26.90
37312;BME280;23197;53.912;9.138;2022-10-10T09:57:35;101250.38;;;34.50;27.12
37312;BME280;23197;53.912;9.138;2022-10-10T10:00:25;101258.41;;;34.45;25.28
37312;BME280;23197;53.912;9.138;2022-10-10T10:03:12;101252.56;;;34.37;25.01
37312;BME280;23197;53.912;9.138;2022-10-10T10:05:40;101249.59;;;34.38;24.97
37312;BME280;23197;53.912;9.138;2022-10-10T10:08:18;101248.69;;;34.49;25.55
37312;BME280;23197;53.912;9.138;2022-10-10T10:10:43;101238.66;;;34.67;24.91
37312;BME280;23197;53.912;9.138;2022-10-10T10:13:13;101240.13;;;34.74;24.50
37312;BME280;23197;53.912;9.138;2022-10-10T10:15:49;101245.72;;;34.68;23.37
37312;BME280;23197;53.912;9.138;2022-10-10T10:20:42;101232.19;;;34.06;23.60
37312;BME280;23197;53.912;9.138;2022-10-10T10:25:56;101235.91;;;33.88;23.43
37312;BME280;23197;53.912;9.138;2022-10-10T10:28:22;101234.25;;;33.98;24.65
37312;BME280;23197;53.912;9.138;2022-10-10T10:30:52;101228.25;;;34.13;24.38
37312;BME280;23197;53.912;9.138;2022-10-10T10:36:01;101235.81;;;34.11;24.58
37312;BME280;23197;53.912;9.138;2022-10-10T10:38:54;101223.84;;;33.67;23.34
37312;BME280;23197;53.912;9.138;2022-10-10T10:41:30;101223.97;;;33.20;23.93
37312;BME280;23197;53.912;9.138;2022-10-10T10:49:39;101224.22;;;32.18;24.79
37312;BME280;23197;53.912;9.138;2022-10-10T10:58:03;101223.44;;;31.69;25.61
37312;BME280;23197;53.912;9.138;2022-10-10T11:00:37;101230.19;;;31.60;25.81
37312;BME280;23197;53.912;9.138;2022-10-10T11:03:25;101232.09;;;31.41;25.48
37312;BME280;23197;53.912;9.138;2022-10-10T11:09:15;101224.31;;;30.40;26.29
37312;BME280;23197;53.912;9.138;2022-10-10T11:12:10;101224.94;;;30.04;26.97
37312;BME280;23197;53.912;9.138;2022-10-10T11:17:35;101222.09;;;29.92;27.76
37312;BME280;23197;53.912;9.138;2022-10-10T11:22:48;101225.41;;;30.25;27.68
37312;BME280;23197;53.912;9.138;2022-10-10T11:25:22;101224.03;;;30.48;27.66
37312;BME280;23197;53.912;9.138;2022-10-10T11:28:12;101217.38;;;30.75;27.76
37312;BME280;23197;53.912;9.138;2022-10-10T11:30:43;101211.28;;;31.05;27.18
37312;BME280;23197;53.912;9.138;2022-10-10T11:33:28;101217.13;;;31.20;26.66
37312;BME280;23197;53.912;9.138;2022-10-10T11:36:04;101216.56;;;31.37;26.08
37312;BME280;23197;53.912;9.138;2022-10-10T11:38:36;101217.00;;;31.33;26.26
37312;BME280;23197;53.912;9.138;2022-10-10T11:41:18;101224.91;;;31.10;25.88
37312;BME280;23197;53.912;9.138;2022-10-10T11:43:59;101210.13;;;30.94;26.54
37312;BME280;23197;53.912;9.138;2022-10-10T11:46:34;101205.31;;;30.96;26.88
37312;BME280;23197;53.912;9.138;2022-10-10T11:54:43;101199.28;;;31.19;27.62
37312;BME280;23197;53.912;9.138;2022-10-10T11:57:19;101205.94;;;31.17;27.47
37312;BME280;23197;53.912;9.138;2022-10-10T11:59:54;101213.53;;;31.08;27.20
37312;BME280;23197;53.912;9.138;2022-10-10T12:02:26;101209.31;;;30.94;27.38
37312;BME280;23197;53.912;9.138;2022-10-10T12:04:55;101205.63;;;30.88;27.48
37312;BME280;23197;53.912;9.138;2022-10-10T12:07:30;101204.19;;;30.67;27.15
37312;BME280;23197;53.912;9.138;2022-10-10T12:10:06;101196.81;;;30.49;27.88
37312;BME280;23197;53.912;9.138;2022-10-10T12:12:37;101197.47;;;30.20;27.53
37312;BME280;23197;53.912;9.138;2022-10-10T12:15:06;101190.19;;;29.89;28.21
37312;BME280;23197;53.912;9.138;2022-10-10T12:17:38;101200.66;;;29.65;27.90
37312;BME280;23197;53.912;9.138;2022-10-10T12:22:35;101203.19;;;29.60;28.78
37312;BME280;23197;53.912;9.138;2022-10-10T12:25:23;101208.41;;;29.42;28.90
37312;BME280;23197;53.912;9.138;2022-10-10T12:44:44;101181.34;;;27.78;30.08
37312;BME280;23197;53.912;9.138;2022-10-10T12:49:56;101182.03;;;27.45;31.05
37312;BME280;23197;53.912;9.138;2022-10-10T12:52:44;101170.41;;;27.38;31.04
37312;BME280;23197;53.912;9.138;2022-10-10T12:57:53;101182.16;;;27.30;31.75
37312;BME280;23197;53.912;9.138;2022-10-10T13:00:23;101177.56;;;27.18;31.50
37312;BME280;23197;53.912;9.138;2022-10-10T13:02:55;101189.63;;;27.00;32.11
37312;BME280;23197;53.912;9.138;2022-10-10T13:05:28;101180.47;;;26.88;32.10
37312;BME280;23197;53.912;9.138;2022-10-10T13:08:00;101182.91;;;26.83;32.37
37312;BME280;23197;53.912;9.138;2022-10-10T13:10:28;101177.63;;;26.96;33.01
37312;BME280;23197;53.912;9.138;2022-10-10T13:13:00;101184.34;;;27.14;32.51
37312;BME280;23197;53.912;9.138;2022-10-10T13:15:27;101185.47;;;27.26;32.68
37312;BME280;23197;53.912;9.138;2022-10-10T13:17:53;101177.66;;;27.44;32.65
37312;BME280;23197;53.912;9.138;2022-10-10T13:20:36;101176.69;;;27.52;31.97
37312;BME280;23197;53.912;9.138;2022-10-10T13:23:13;101188.59;;;27.36;32.22
37312;BME280;23197;53.912;9.138;2022-10-10T13:25:39;101174.47;;;27.21;32.63
37312;BME280;23197;53.912;9.138;2022-10-10T13:28:18;101188.09;;;26.91;32.62
37312;BME280;23197;53.912;9.138;2022-10-10T13:30:44;101178.63;;;26.61;32.70
37312;BME280;23197;53.912;9.138;2022-10-10T13:33:15;101186.47;;;26.19;33.07
37312;BME280;23197;53.912;9.138;2022-10-10T13:35:42;101191.94;;;25.90;33.82
37312;BME280;23197;53.912;9.138;2022-10-10T13:38:11;101183.94;;;25.60;34.02
37312;BME280;23197;53.912;9.138;2022-10-10T13:40:39;101196.47;;;25.24;34.81
37312;BME280;23197;53.912;9.138;2022-10-10T13:43:12;101193.47;;;24.89;35.40
37312;BME280;23197;53.912;9.138;2022-10-10T13:45:44;101192.59;;;24.59;35.72
37312;BME280;23197;53.912;9.138;2022-10-10T13:48:11;101190.13;;;24.34;36.29
37312;BME280;23197;53.912;9.138;2022-10-10T13:58:30;101183.25;;;23.47;37.20
37312;BME280;23197;53.912;9.138;2022-10-10T14:01:01;101183.16;;;23.32;37.52
37312;BME280;23197;53.912;9.138;2022-10-10T14:03:28;101190.00;;;23.26;37.57
37312;BME280;23197;53.912;9.138;2022-10-10T14:05:55;101197.19;;;23.18;37.92
37312;BME280;23197;53.912;9.138;2022-10-10T14:08:27;101208.06;;;23.00;38.19
37312;BME280;23197;53.912;9.138;2022-10-10T14:10:58;101198.75;;;22.88;38.39
37312;BME280;23197;53.912;9.138;2022-10-10T14:13:25;101193.78;;;22.77;38.46
37312;BME280;23197;53.912;9.138;2022-10-10T14:15:51;101195.44;;;22.61;38.88
37312;BME280;23197;53.912;9.138;2022-10-10T14:18:26;101203.28;;;22.46;39.05
37312;BME280;23197;53.912;9.138;2022-10-10T14:20:51;101211.25;;;22.38;39.12
37312;BME280;23197;53.912;9.138;2022-10-10T14:23:21;101211.75;;;22.26;39.24
37312;BME280;23197;53.912;9.138;2022-10-10T14:25:47;101207.75;;;22.13;39.52
37312;BME280;23197;53.912;9.138;2022-10-10T14:28:15;101204.50;;;22.02;40.13
37312;BME280;23197;53.912;9.138;2022-10-10T14:30:42;101213.13;;;21.87;40.68
37312;BME280;23197;53.912;9.138;2022-10-10T14:33:12;101210.28;;;21.73;40.75
37312;BME280;23197;53.912;9.138;2022-10-10T14:35:38;101221.03;;;21.63;41.10
37312;BME280;23197;53.912;9.138;2022-10-10T14:38:04;101206.88;;;21.54;41.27
37312;BME280;23197;53.912;9.138;2022-10-10T14:40:31;101217.50;;;21.46;41.81
37312;BME280;23197;53.912;9.138;2022-10-10T14:42:57;101222.91;;;21.36;41.85
37312;BME280;23197;53.912;9.138;2022-10-10T14:45:22;101222.03;;;21.28;42.26